Time;durP1;ratioP1;P1;durP2;ratioP2;P2;SDS_P1;SDS_P2;PMS_P1;PMS_P2;Temp;Humidity;BMP_temperature;BMP_pressure;BME280_temperature;BME280_humidity;BME280_pressure;Samples;Min_cycle;Max_cycle;Signal;HPM_P1;HPM_P2
2023/07/16 00:01:25;;;;;;;4.85;1.40;;;;;;;20.67;83.63;100210.25;6155892;23;20064;-75
2023/07/16 00:04:28;;;;;;;2.53;1.23;;;;;;;20.61;84.13;100200.25;6155923;23;20028;-75
2023/07/16 00:07:32;;;;;;;3.40;1.67;;;;;;;20.65;83.14;100208.75;6156013;23;20044;-75
2023/07/16 00:10:38;;;;;;;3.08;1.15;;;;;;;20.59;80.70;100201.41;6156049;23;20068;-75
2023/07/16 00:13:47;;;;;;;3.80;1.45;;;;;;;20.57;81.25;100182.94;6155990;23;20032;-74
2023/07/16 00:16:50;;;;;;;3.13;0.90;;;;;;;20.49;76.19;100190.00;6155790;23;20068;-74
2023/07/16 00:19:54;;;;;;;2.85;1.00;;;;;;;20.52;70.29;100179.94;6155882;23;20149;-74
2023/07/16 00:22:57;;;;;;;2.80;1.17;;;;;;;20.59;70.23;100190.78;6155883;23;20028;-74
2023/07/16 00:26:01;;;;;;;3.65;1.00;;;;;;;20.55;68.01;100192.91;6155923;23;20076;-74
2023/07/16 00:29:04;;;;;;;4.50;1.10;;;;;;;20.58;67.85;100205.88;6155663;23;20356;-74
2023/07/16 00:32:08;;;;;;;4.28;1.60;;;;;;;20.58;65.97;100199.72;6137518;23;20364;-74
2023/07/16 00:35:14;;;;;;;4.63;1.48;;;;;;;20.56;65.71;100197.22;6156016;23;20024;-74
2023/07/16 00:38:18;;;;;;;3.30;1.23;;;;;;;20.61;66.59;100200.25;6155555;23;20024;-74
2023/07/16 00:41:21;;;;;;;5.57;1.10;;;;;;;20.43;66.80;100196.75;6137323;23;20040;-74
2023/07/16 00:44:25;;;;;;;3.63;1.08;;;;;;;20.49;66.46;100204.09;6120506;23;20076;-74
2023/07/16 00:47:30;;;;;;;2.88;1.13;;;;;;;20.56;65.94;100213.16;6137330;23;20040;-74
2023/07/16 00:50:39;;;;;;;5.28;1.10;;;;;;;20.49;70.46;100216.56;6155610;23;20024;-74
2023/07/16 00:53:43;;;;;;;3.40;1.08;;;;;;;20.44;66.17;100211.69;6155538;23;20028;-74
2023/07/16 00:56:48;;;;;;;4.20;1.20;;;;;;;20.56;65.08;100207.84;6155863;23;20025;-74
2023/07/16 00:59:51;;;;;;;4.22;1.45;;;;;;;20.61;64.89;100210.88;6155428;23;20021;-74
2023/07/16 01:02:54;;;;;;;3.00;0.98;;;;;;;20.54;65.56;100217.78;6137405;23;20032;-74
2023/07/16 01:06:21;;;;;;;8.63;1.65;;;;;;;20.52;64.82;100211.81;6155307;23;20080;-74
2023/07/16 01:09:24;;;;;;;4.93;1.35;;;;;;;20.41;65.77;100210.16;6155267;23;20031;-74
2023/07/16 01:12:28;;;;;;;5.47;2.15;;;;;;;20.55;66.91;100214.16;6155393;23;20400;-74
2023/07/16 01:15:32;;;;;;;2.97;1.02;;;;;;;20.39;65.50;100211.31;6155239;23;20033;-74
2023/07/16 01:18:36;;;;;;;3.53;1.10;;;;;;;20.36;65.06;100203.66;6155265;23;20024;-73
2023/07/16 01:21:43;;;;;;;5.72;1.80;;;;;;;20.20;65.36;100212.28;6137209;23;20063;-74
2023/07/16 01:25:08;;;;;;;5.97;2.38;;;;;;;20.03;64.90;100223.69;6137131;23;20092;-73
2023/07/16 01:28:32;;;;;;;7.18;1.80;;;;;;;19.96;65.14;100226.94;6155195;23;20028;-74
2023/07/16 01:31:36;;;;;;;3.95;1.83;;;;;;;20.08;64.87;100230.22;6155144;23;20060;-73
2023/07/16 01:34:40;;;;;;;5.38;1.48;;;;;;;20.05;65.26;100238.50;6155081;23;20024;-73
2023/07/16 01:37:44;;;;;;;8.57;1.90;;;;;;;19.89;65.88;100241.78;6155428;23;20403;-73
2023/07/16 01:40:47;;;;;;;5.88;1.10;;;;;;;19.93;65.40;100240.50;6153971;23;20474;-74
2023/07/16 01:43:50;;;;;;;3.63;1.60;;;;;;;19.89;65.48;100244.44;6136945;23;20032;-74
2023/07/16 01:47:29;;;;;;;4.75;1.48;;;;;;;19.92;65.56;100245.97;6155023;23;20032;-74
2023/07/16 01:50:32;;;;;;;4.53;1.20;;;;;;;20.03;65.25;100245.75;6155032;23;20025;-73
2023/07/16 01:53:35;;;;;;;8.13;2.00;;;;;;;19.92;65.46;100251.28;6155016;23;20027;-73
2023/07/16 01:56:40;;;;;;;9.18;1.77;;;;;;;19.68;66.23;100255.25;6137005;23;20144;-74
2023/07/16 01:59:46;;;;;;;4.68;1.60;;;;;;;19.76;65.91;100261.69;6154860;23;20048;-74
2023/07/16 02:02:50;;;;;;;6.13;1.60;;;;;;;19.61;65.89;100253.31;6136798;23;20076;-73
2023/07/16 02:05:54;;;;;;;5.15;1.52;;;;;;;19.61;65.98;100259.44;6154988;23;20023;-74
2023/07/16 02:08:57;;;;;;;4.45;1.48;;;;;;;19.64;65.92;100267.16;6154845;23;20024;-74
2023/07/16 02:12:02;;;;;;;5.75;1.50;;;;;;;19.61;66.08;100267.41;6136866;23;20083;-74
2023/07/16 02:15:06;;;;;;;6.15;1.58;;;;;;;19.47;66.29;100279.31;6154943;23;20048;-74
2023/07/16 02:18:13;;;;;;;4.20;1.60;;;;;;;19.58;66.54;100262.41;6137553;23;20084;-73
2023/07/16 02:21:17;;;;;;;5.88;2.03;;;;;;;19.71;65.81;100265.59;6157050;23;20044;-73
2023/07/16 02:24:20;;;;;;;3.83;1.42;;;;;;;19.66;66.03;100278.47;6138946;23;20028;-74
2023/07/16 02:27:23;;;;;;;7.50;1.30;;;;;;;19.61;66.40;100285.16;6156926;23;20089;-74
2023/07/16 02:30:26;;;;;;;5.18;1.55;;;;;;;19.58;66.50;100288.91;6156751;23;20040;-74
2023/07/16 02:33:30;;;;;;;6.28;2.05;;;;;;;19.52;66.32;100292.97;6138809;23;20067;-74
2023/07/16 02:36:33;;;;;;;5.97;2.10;;;;;;;19.55;65.75;100301.63;6156727;23;20052;-74
2023/07/16 02:39:38;;;;;;;5.65;2.10;;;;;;;19.57;65.98;100308.47;6138769;23;20352;-74
2023/07/16 02:42:42;;;;;;;5.78;2.20;;;;;;;19.53;66.19;100312.41;6145854;23;20032;-73
2023/07/16 02:45:45;;;;;;;4.43;1.50;;;;;;;19.45;67.37;100320.22;6156677;23;20078;-74
2023/07/16 02:48:48;;;;;;;7.13;1.73;;;;;;;19.47;66.64;100321.75;6155564;23;20079;-73
2023/07/16 02:51:52;;;;;;;4.75;2.03;;;;;;;19.29;65.89;100334.06;6156647;23;20028;-74
2023/07/16 02:54:56;;;;;;;4.75;1.80;;;;;;;19.44;66.01;100321.19;6156687;23;20024;-74
2023/07/16 02:58:04;;;;;;;4.00;1.23;;;;;;;19.39;66.63;100331.38;6155639;23;20094;-74
2023/07/16 03:01:07;;;;;;;5.38;1.30;;;;;;;19.20;67.46;100335.72;6156479;23;20027;-74
2023/07/16 03:04:11;;;;;;;6.72;1.73;;;;;;;19.21;66.81;100348.03;6155563;23;20096;-74
2023/07/16 03:07:14;;;;;;;5.50;1.92;;;;;;;19.23;66.36;100354.00;6156531;23;20462;-73
2023/07/16 03:10:17;;;;;;;6.53;1.70;;;;;;;19.13;67.28;100361.13;6156434;23;20073;-74
2023/07/16 03:13:21;;;;;;;5.03;1.63;;;;;;;18.99;67.62;100364.19;6155401;23;20056;-74
2023/07/16 03:16:24;;;;;;;5.68;1.75;;;;;;;19.01;67.65;100365.72;6156360;23;20121;-74
2023/07/16 03:19:29;;;;;;;4.75;1.63;;;;;;;19.00;68.35;100366.69;6155392;23;20073;-74
2023/07/16 03:22:32;;;;;;;4.35;1.58;;;;;;;18.96;67.63;100364.47;6156372;23;20028;-73
2023/07/16 03:25:36;;;;;;;6.53;1.45;;;;;;;19.08;67.80;100370.44;6138355;23;20101;-73
2023/07/16 03:28:39;;;;;;;5.38;1.48;;;;;;;19.23;67.40;100366.41;6155081;23;20029;-73
2023/07/16 03:31:45;;;;;;;5.80;1.50;;;;;;;19.08;68.38;100366.00;6138169;23;20025;-74
2023/07/16 03:34:49;;;;;;;7.32;1.77;;;;;;;19.16;66.87;100360.84;6138646;23;20148;-74
2023/07/16 03:37:56;;;;;;;4.85;1.58;;;;;;;18.99;66.77;100377.44;6155233;23;20071;-73
2023/07/16 03:41:02;;;;;;;3.95;1.40;;;;;;;18.76;68.24;100377.69;6156234;23;20037;-74
2023/07/16 03:44:07;;;;;;;4.00;1.50;;;;;;;18.89;67.28;100377.44;6108689;23;20028;-74
2023/07/16 03:47:12;;;;;;;5.13;1.70;;;;;;;18.71;67.60;100377.22;6108671;23;20025;-73
2023/07/16 03:50:16;;;;;;;5.13;1.40;;;;;;;18.81;67.33;100375.44;6092089;23;20416;-74
2023/07/16 03:53:19;;;;;;;5.63;1.65;;;;;;;18.70;66.29;100383.50;6126385;23;20033;-74
2023/07/16 03:56:22;;;;;;;4.15;1.35;;;;;;;18.73;66.09;100380.59;6108667;23;20121;-73
2023/07/16 03:59:28;;;;;;;6.00;1.38;;;;;;;18.63;65.99;100373.56;6126521;23;20029;-73
2023/07/16 04:02:32;;;;;;;6.35;1.48;;;;;;;18.38;66.64;100381.03;6108683;23;20028;-73
2023/07/16 04:05:35;;;;;;;4.55;1.25;;;;;;;18.53;66.14;100374.38;6108630;23;20352;-73
2023/07/16 04:08:39;;;;;;;6.80;1.92;;;;;;;18.51;65.54;100380.81;6108398;23;20029;-73
2023/07/16 04:11:42;;;;;;;4.78;1.42;;;;;;;18.60;65.26;100393.19;6126537;23;20045;-73
2023/07/16 04:14:47;;;;;;;7.07;2.10;;;;;;;18.53;65.22;100392.91;6126391;23;20106;-73
2023/07/16 04:17:49;;;;;;;5.63;1.60;;;;;;;18.50;64.94;100398.47;6126430;23;20528;-73
2023/07/16 04:20:53;;;;;;;5.38;1.40;;;;;;;18.49;65.13;100396.81;6126356;23;20069;-74
2023/07/16 04:23:56;;;;;;;4.47;1.65;;;;;;;18.35;66.06;100398.03;6126493;23;20065;-73
2023/07/16 04:27:05;;;;;;;5.28;1.25;;;;;;;18.41;66.08;100401.09;6126315;23;20026;-73
2023/07/16 04:30:09;;;;;;;6.13;1.55;;;;;;;18.39;66.08;100411.00;6126098;23;20365;-73
2023/07/16 04:33:13;;;;;;;4.28;1.33;;;;;;;18.46;66.44;100417.41;6126626;23;20024;-73
2023/07/16 04:36:16;;;;;;;4.03;1.35;;;;;;;18.35;66.52;100413.91;6108374;23;20029;-73
2023/07/16 04:39:20;;;;;;;6.40;1.60;;;;;;;18.25;67.29;100410.38;6126150;23;20025;-73
2023/07/16 04:42:23;;;;;;;7.63;1.70;;;;;;;18.30;67.79;100404.69;6141459;23;20028;-73
2023/07/16 04:45:27;;;;;;;7.30;1.55;;;;;;;18.30;67.69;100415.25;6155517;23;20028;-73
2023/07/16 04:48:30;;;;;;;8.57;1.95;;;;;;;18.17;68.55;100414.66;6155482;23;20029;-73
2023/07/16 04:51:34;;;;;;;7.63;2.00;;;;;;;18.33;67.58;100420.28;6137451;23;20028;-72
2023/07/16 04:54:38;;;;;;;4.15;1.40;;;;;;;18.40;67.12;100420.59;6155420;23;20029;-73
2023/07/16 04:57:41;;;;;;;4.40;1.70;;;;;;;18.16;67.82;100424.41;6155475;23;20024;-74
2023/07/16 05:00:44;;;;;;;7.63;1.83;;;;;;;18.31;67.52;100433.66;6154397;23;20025;-74
2023/07/16 05:03:47;;;;;;;7.35;1.95;;;;;;;18.50;67.39;100435.53;6154854;23;20057;-75
2023/07/16 05:06:52;;;;;;;7.15;1.60;;;;;;;18.52;66.47;100444.19;6136895;23;20533;-73
2023/07/16 05:09:54;;;;;;;7.72;2.13;;;;;;;18.50;66.18;100442.66;6155179;23;20088;-73
2023/07/16 05:12:58;;;;;;;6.13;1.60;;;;;;;18.39;66.32;100451.53;6155663;23;20072;-72
2023/07/16 05:16:01;;;;;;;5.38;2.00;;;;;;;18.58;66.01;100461.38;6155568;23;20031;-73
2023/07/16 05:19:05;;;;;;;6.70;1.58;;;;;;;18.52;65.55;100451.31;6155567;23;20020;-73
2023/07/16 05:22:11;;;;;;;6.35;1.98;;;;;;;18.37;65.37;100458.75;6155623;23;20028;-73
2023/07/16 05:25:14;;;;;;;8.15;1.63;;;;;;;18.51;65.05;100462.88;6155504;23;20109;-73
2023/07/16 05:28:18;;;;;;;10.90;2.40;;;;;;;18.57;64.49;100467.66;6155520;23;20029;-73
2023/07/16 05:31:22;;;;;;;8.82;2.08;;;;;;;18.46;64.61;100473.00;6155359;23;20028;-73
2023/07/16 05:34:28;;;;;;;5.95;1.80;;;;;;;18.36;64.66;100473.81;6155577;23;20028;-73
2023/07/16 05:37:31;;;;;;;7.63;2.10;;;;;;;18.39;64.16;100469.22;6137333;23;20105;-74
2023/07/16 05:40:35;;;;;;;8.43;2.13;;;;;;;18.36;63.99;100491.50;6154717;23;20509;-72
2023/07/16 05:43:38;;;;;;;10.63;2.90;;;;;;;18.40;62.94;100484.97;6135221;23;20055;-72
2023/07/16 05:46:42;;;;;;;8.15;2.08;;;;;;;18.39;62.96;100493.06;6154567;23;20498;-71
2023/07/16 05:49:46;;;;;;;6.55;2.30;;;;;;;18.42;62.42;100490.97;6154630;23;20447;-71
2023/07/16 05:52:49;;;;;;;6.50;2.40;;;;;;;18.54;62.34;100492.56;6153917;23;20025;-71
2023/07/16 05:55:53;;;;;;;10.02;2.47;;;;;;;18.52;61.60;100499.78;6153565;23;20028;-71
2023/07/16 05:58:56;;;;;;;12.00;2.67;;;;;;;18.66;61.62;100495.94;6153224;23;20407;-72
2023/07/16 06:02:00;;;;;;;8.23;3.08;;;;;;;18.86;61.13;100498.69;6154286;23;20077;-72
2023/07/16 06:05:04;;;;;;;6.18;2.25;;;;;;;18.89;60.92;100499.31;6153093;23;20083;-70
2023/07/16 06:08:08;;;;;;;9.88;2.72;;;;;;;18.97;60.17;100493.31;6154011;23;20096;-73
2023/07/16 06:11:13;;;;;;;10.48;2.88;;;;;;;19.02;58.85;100496.41;6153271;23;20156;-74
2023/07/16 06:14:16;;;;;;;8.85;2.83;;;;;;;19.11;57.98;100492.09;6154613;23;20076;-71
2023/07/16 06:17:19;;;;;;;13.63;4.03;;;;;;;19.08;56.96;100503.81;6153474;23;20028;-70
2023/07/16 06:20:25;;;;;;;6.72;2.47;;;;;;;18.92;57.09;100506.97;6153830;23;20532;-72
2023/07/16 06:23:30;;;;;;;9.10;3.03;;;;;;;18.80;57.44;100505.41;6154360;23;20028;-71
2023/07/16 06:26:36;;;;;;;10.18;2.97;;;;;;;18.98;56.51;100513.53;6153381;23;20029;-72
2023/07/16 06:29:40;;;;;;;5.80;2.60;;;;;;;19.03;56.38;100521.94;6136528;23;20025;-72
2023/07/16 06:32:43;;;;;;;9.48;2.97;;;;;;;18.93;56.34;100513.94;6154607;23;20029;-73
2023/07/16 06:35:49;;;;;;;7.88;2.97;;;;;;;19.05;56.57;100509.38;6155146;23;20028;-72
2023/07/16 06:38:53;;;;;;;8.98;2.85;;;;;;;19.16;56.37;100503.97;6154421;23;20036;-73
2023/07/16 06:41:56;;;;;;;10.85;3.30;;;;;;;19.18;55.68;100506.50;6152994;23;20171;-73
2023/07/16 06:45:01;;;;;;;7.18;2.80;;;;;;;19.18;54.90;100523.22;6154301;23;20073;-73
2023/07/16 06:48:06;;;;;;;7.43;3.30;;;;;;;19.06;54.91;100516.34;6153016;23;20475;-72
2023/07/16 06:51:09;;;;;;;9.63;2.80;;;;;;;19.06;54.56;100521.66;6154684;23;20076;-72
2023/07/16 06:54:13;;;;;;;6.57;3.42;;;;;;;19.10;53.65;100520.41;6137335;23;20519;-73
2023/07/16 06:57:16;;;;;;;8.50;3.15;;;;;;;19.09;53.89;100510.78;6155152;23;20025;-72
2023/07/16 07:00:20;;;;;;;8.77;3.30;;;;;;;19.03;53.49;100535.19;6155194;23;20052;-73
2023/07/16 07:03:26;;;;;;;9.20;3.22;;;;;;;19.24;53.85;100528.00;6155195;23;20107;-72
2023/07/16 07:06:30;;;;;;;9.88;3.13;;;;;;;19.30;52.96;100529.25;6157018;23;20456;-72
2023/07/16 07:09:34;;;;;;;10.48;3.55;;;;;;;19.26;52.93;100528.66;6156910;23;20025;-72
2023/07/16 07:12:37;;;;;;;8.02;3.10;;;;;;;19.23;52.63;100530.75;6157017;23;20024;-72
2023/07/16 07:15:42;;;;;;;11.07;3.45;;;;;;;19.18;52.36;100531.19;6156984;23;20518;-72
2023/07/16 07:18:47;;;;;;;10.98;4.07;;;;;;;19.14;53.33;100535.06;6156825;23;20076;-73
2023/07/16 07:21:50;;;;;;;8.60;3.30;;;;;;;19.12;52.52;100536.19;6156744;23;20028;-71
2023/07/16 07:24:54;;;;;;;12.25;3.30;;;;;;;19.23;53.09;100544.84;6156323;23;20355;-73
2023/07/16 07:27:57;;;;;;;12.52;3.00;;;;;;;19.42;51.26;100545.88;6155763;23;20068;-75
2023/07/16 07:31:01;;;;;;;8.05;2.80;;;;;;;19.28;50.71;100542.63;6155851;23;20084;-74
2023/07/16 07:34:07;;;;;;;9.02;3.05;;;;;;;19.33;50.66;100531.63;6138781;23;20032;-76
2023/07/16 07:37:14;;;;;;;7.35;2.67;;;;;;;19.49;49.69;100531.09;6154444;23;20025;-74
2023/07/16 07:40:23;;;;;;;12.80;3.38;;;;;;;19.42;50.16;100524.66;6155500;23;20033;-74
2023/07/16 07:43:28;;;;;;;7.93;3.55;;;;;;;19.56;49.49;100526.94;6136325;23;20027;-73
2023/07/16 07:46:31;;;;;;;5.35;2.42;;;;;;;19.46;49.29;100523.41;6156482;23;20506;-75
2023/07/16 07:49:37;;;;;;;10.05;2.60;;;;;;;19.56;48.80;100532.22;6156274;23;20099;-75
2023/07/16 07:52:44;;;;;;;8.65;3.08;;;;;;;19.70;47.76;100533.66;6156393;23;20025;-75
2023/07/16 07:55:47;;;;;;;4.28;2.30;;;;;;;19.76;46.86;100538.41;6155854;23;20076;-72
2023/07/16 07:58:51;;;;;;;7.25;2.60;;;;;;;19.62;46.14;100537.00;6154073;23;20474;-72
2023/07/16 08:01:55;;;;;;;6.88;2.42;;;;;;;19.63;46.40;100537.81;6155065;23;20470;-72
2023/07/16 08:04:58;;;;;;;6.10;2.38;;;;;;;19.76;46.57;100532.28;6155971;23;20152;-72
2023/07/16 08:08:02;;;;;;;7.30;2.75;;;;;;;19.83;46.46;100522.78;6155147;23;20028;-71
2023/07/16 08:11:08;;;;;;;11.07;3.35;;;;;;;19.88;46.39;100531.16;6153640;23;20342;-72
2023/07/16 08:14:24;;;;;;;7.20;2.50;;;;;;;20.08;46.08;100527.50;6156116;23;20111;-72
2023/07/16 08:17:28;;;;;;;8.18;2.70;;;;;;;20.08;46.72;100526.69;6155694;23;20247;-73
2023/07/16 08:20:40;;;;;;;4.93;2.25;;;;;;;20.27;46.08;100533.78;6155257;23;20024;-75
2023/07/16 08:23:44;;;;;;;7.03;3.00;;;;;;;20.41;46.23;100528.00;6156097;23;20028;-74
2023/07/16 08:26:48;;;;;;;11.20;2.85;;;;;;;20.54;46.10;100527.72;6154518;23;20025;-72
2023/07/16 08:29:52;;;;;;;7.50;3.00;;;;;;;20.62;45.63;100515.38;6155372;23;20448;-75
2023/07/16 08:32:55;;;;;;;9.80;3.47;;;;;;;20.70;45.80;100519.97;6155894;23;20440;-73
2023/07/16 08:35:59;;;;;;;8.60;3.10;;;;;;;20.76;44.96;100535.31;6155355;23;20399;-72
2023/07/16 08:39:02;;;;;;;8.80;2.88;;;;;;;20.68;44.61;100527.25;6155061;23;20149;-74
2023/07/16 08:42:29;;;;;;;6.95;2.70;;;;;;;20.90;42.97;100539.34;6154362;23;20092;-73
2023/07/16 08:45:39;;;;;;;6.47;2.47;;;;;;;20.84;42.75;100526.66;6153523;23;20029;-74
2023/07/16 08:48:52;;;;;;;6.47;2.60;;;;;;;20.96;42.47;100533.41;6154202;23;20523;-78
2023/07/16 08:51:57;;;;;;;6.45;2.70;;;;;;;20.99;42.74;100538.44;6154363;23;20355;-76
2023/07/16 08:55:00;;;;;;;7.05;2.75;;;;;;;21.01;41.39;100551.59;6155587;23;20027;-72
2023/07/16 08:58:05;;;;;;;12.13;2.47;;;;;;;21.02;40.64;100540.81;6155610;23;20143;-74
2023/07/16 09:01:09;;;;;;;4.20;2.67;;;;;;;21.05;40.57;100543.16;6137356;23;20040;-72
2023/07/16 09:04:13;;;;;;;8.30;2.85;;;;;;;21.19;40.81;100546.34;6136982;23;20662;-72
2023/07/16 09:07:17;;;;;;;6.30;2.75;;;;;;;21.29;40.25;100550.63;6154966;23;20075;-66
2023/07/16 09:11:20;;;;;;;9.40;2.40;;;;;;;21.45;39.91;100536.69;6154209;23;20024;-73
2023/07/16 09:14:24;;;;;;;6.38;2.72;;;;;;;21.52;40.07;100544.91;6135010;23;20100;-72
2023/07/16 09:17:27;;;;;;;7.30;2.67;;;;;;;21.52;40.01;100555.53;6153610;23;20463;-73
2023/07/16 09:20:45;;;;;;;7.80;3.25;;;;;;;21.54;39.91;100540.28;6136151;23;20020;-76
2023/07/16 09:23:49;;;;;;;7.30;2.88;;;;;;;21.38;40.01;100556.03;6153638;23;20380;-73
2023/07/16 09:26:55;;;;;;;8.52;2.85;;;;;;;21.40;40.21;100554.91;6153722;23;20028;-74
2023/07/16 09:30:02;;;;;;;4.68;2.55;;;;;;;21.41;39.78;100559.25;6155289;23;20088;-74
2023/07/16 09:33:14;;;;;;;6.13;2.92;;;;;;;21.63;39.92;100541.19;6155054;23;20089;-74
2023/07/16 09:36:25;;;;;;;9.43;2.80;;;;;;;21.72;39.29;100543.75;6155304;23;20398;-74
2023/07/16 09:39:29;;;;;;;6.00;3.10;;;;;;;21.82;39.34;100570.31;6155607;23;20036;-76
2023/07/16 09:42:36;;;;;;;6.00;2.95;;;;;;;21.88;39.11;100561.72;6155315;23;20087;-74
2023/07/16 09:45:42;;;;;;;5.75;2.95;;;;;;;21.90;38.59;100565.06;6155258;23;20512;-74
2023/07/16 09:48:45;;;;;;;5.45;2.47;;;;;;;21.79;38.84;100565.28;6155214;23;20059;-73
2023/07/16 09:51:54;;;;;;;7.07;2.67;;;;;;;21.85;38.25;100562.00;6155543;23;20025;-75
2023/07/16 09:55:01;;;;;;;7.65;2.75;;;;;;;21.83;38.60;100548.88;6155443;23;20040;-76
2023/07/16 09:58:10;;;;;;;8.30;3.58;;;;;;;22.05;39.65;100558.22;6155393;23;20032;-74
2023/07/16 10:01:14;;;;;;;6.68;2.95;;;;;;;22.08;38.22;100550.88;6155305;23;20466;-74
2023/07/16 10:04:21;;;;;;;7.32;3.15;;;;;;;22.22;38.75;100558.38;6155025;23;20471;-79
2023/07/16 10:07:28;;;;;;;6.70;3.30;;;;;;;22.37;39.53;100551.50;6155496;23;20024;-78
2023/07/16 10:10:49;;;;;;;8.52;2.85;;;;;;;22.31;38.47;100529.97;6137939;23;20029;-75
2023/07/16 10:13:52;;;;;;;5.43;2.60;;;;;;;22.23;39.11;100542.22;6155329;23;20028;-77
2023/07/16 10:17:02;;;;;;;5.65;2.50;;;;;;;22.20;38.02;100550.53;6155364;23;20084;-79
2023/07/16 10:20:07;;;;;;;7.68;2.25;;;;;;;22.13;37.39;100559.25;6155276;23;20083;-77
2023/07/16 10:23:15;;;;;;;5.28;2.80;;;;;;;22.24;37.82;100551.06;6155211;23;20023;-76
2023/07/16 10:26:25;;;;;;;8.60;2.67;;;;;;;22.35;38.11;100542.81;6155081;23;20108;-76
2023/07/16 10:29:29;;;;;;;5.88;2.60;;;;;;;22.45;38.15;100538.22;6154897;23;20076;-77
2023/07/16 10:32:35;;;;;;;7.45;2.75;;;;;;;22.40;37.69;100551.19;6154965;23;20399;-74
2023/07/16 10:35:41;;;;;;;6.43;2.85;;;;;;;22.45;38.52;100540.88;6155354;23;20088;-83
2023/07/16 10:38:44;;;;;;;5.80;2.83;;;;;;;22.47;36.75;100544.22;6155191;23;20055;-85
2023/07/16 10:41:49;;;;;;;7.63;2.40;;;;;;;22.47;36.78;100560.22;6138467;23;20091;-81
2023/07/16 10:45:10;;;;;;;6.85;2.28;;;;;;;22.48;36.27;100553.88;6156706;23;20080;-79
2023/07/16 10:48:15;;;;;;;5.40;2.72;;;;;;;22.50;36.08;100551.91;6156677;23;20738;-79
2023/07/16 10:51:27;;;;;;;8.02;3.22;;;;;;;22.62;36.25;100532.97;6156793;23;20092;-78
2023/07/16 10:54:30;;;;;;;5.65;3.08;;;;;;;22.76;35.96;100527.06;6156977;23;20108;-79
2023/07/16 10:57:40;;;;;;;7.13;3.00;;;;;;;22.95;35.62;100532.19;6156687;23;20152;-78
2023/07/16 11:00:53;;;;;;;8.55;3.08;;;;;;;23.02;35.83;100523.56;6156660;23;20025;-79
2023/07/16 11:04:07;;;;;;;5.32;2.65;;;;;;;23.15;36.27;100519.41;6156679;23;20068;-77
2023/07/16 11:07:12;;;;;;;4.72;2.45;;;;;;;23.25;34.39;100532.63;6156716;23;20028;-78
2023/07/16 11:10:18;;;;;;;9.73;3.15;;;;;;;23.30;35.42;100538.31;6156305;23;20029;-78
2023/07/16 11:13:28;;;;;;;8.57;2.53;;;;;;;23.36;35.37;100544.84;6138537;23;20028;-77
2023/07/16 11:16:38;;;;;;;7.35;2.92;;;;;;;23.48;35.17;100529.34;6156422;23;20101;-78
2023/07/16 11:19:46;;;;;;;4.88;2.60;;;;;;;23.56;35.37;100537.38;6156520;23;20099;-79
2023/07/16 11:22:52;;;;;;;10.15;2.63;;;;;;;23.41;34.31;100540.66;6138370;23;20352;-79
2023/07/16 11:25:56;;;;;;;8.02;3.05;;;;;;;23.31;34.86;100537.31;6138405;23;20481;-79
2023/07/16 11:28:59;;;;;;;5.13;2.55;;;;;;;23.42;35.05;100534.34;6156326;23;20025;-78
2023/07/16 11:32:03;;;;;;;6.40;2.72;;;;;;;23.52;35.33;100530.69;6156220;23;20025;-77
2023/07/16 11:35:07;;;;;;;7.07;2.47;;;;;;;23.69;34.86;100543.09;6138251;23;20052;-77
2023/07/16 11:38:11;;;;;;;5.53;2.72;;;;;;;23.74;34.25;100537.25;6156566;23;20025;-76
2023/07/16 11:41:19;;;;;;;7.53;3.08;;;;;;;23.61;34.08;100535.88;6156250;23;20423;-78
2023/07/16 11:44:22;;;;;;;5.28;2.60;;;;;;;23.75;33.94;100531.75;6155212;23;20024;-77
2023/07/16 11:47:27;;;;;;;6.85;2.83;;;;;;;23.92;34.11;100537.09;6154754;23;20028;-77
2023/07/16 11:50:34;;;;;;;6.50;2.47;;;;;;;24.06;33.91;100533.78;6137637;23;20109;-77
2023/07/16 11:53:38;;;;;;;6.13;3.30;;;;;;;24.11;33.90;100558.13;6156331;23;20028;-78
2023/07/16 11:56:43;;;;;;;5.93;2.90;;;;;;;23.80;34.73;100524.09;6156339;23;20080;-77
2023/07/16 11:59:50;;;;;;;7.68;3.00;;;;;;;23.92;34.32;100531.75;6156456;23;20044;-77
2023/07/16 12:02:54;;;;;;;5.53;3.33;;;;;;;24.04;34.25;100525.91;6156391;23;20023;-78
2023/07/16 12:05:57;;;;;;;5.03;2.92;;;;;;;24.05;33.92;100548.13;6156183;23;20028;-75
2023/07/16 12:09:00;;;;;;;6.43;2.90;;;;;;;24.06;33.43;100549.81;6156198;23;20084;-78
2023/07/16 12:12:04;;;;;;;6.57;3.15;;;;;;;23.97;33.00;100519.59;6156233;23;20025;-78
2023/07/16 12:15:08;;;;;;;7.80;2.95;;;;;;;24.08;33.26;100526.41;6156295;23;20076;-76
2023/07/16 12:18:13;;;;;;;6.97;3.72;;;;;;;24.05;32.64;100534.75;6156310;23;20028;-74
2023/07/16 12:21:17;;;;;;;8.57;3.67;;;;;;;24.08;33.10;100529.09;6156017;23;20076;-78
2023/07/16 12:24:22;;;;;;;17.40;3.88;;;;;;;24.18;32.60;100537.75;6156078;23;20470;-77
2023/07/16 12:27:26;;;;;;;7.40;3.42;;;;;;;24.31;32.83;100527.41;6156064;23;20458;-77
2023/07/16 12:30:30;;;;;;;7.18;3.35;;;;;;;24.42;32.08;100555.63;6137675;23;20024;-77
2023/07/16 12:33:38;;;;;;;5.13;3.03;;;;;;;24.44;32.21;100542.09;6156010;23;20033;-74
2023/07/16 12:36:42;;;;;;;6.15;3.30;;;;;;;24.54;32.08;100534.75;6156025;23;20097;-78
2023/07/16 12:39:49;;;;;;;7.18;3.05;;;;;;;24.71;31.93;100525.66;6120945;23;20348;-77
2023/07/16 12:42:56;;;;;;;8.80;4.18;;;;;;;24.62;32.40;100521.34;6155250;23;20088;-78
2023/07/16 12:49:42;;;;;;;6.32;3.65;;;;;;;24.59;32.01;100543.91;6155791;23;20032;-78
2023/07/16 12:52:46;;;;;;;6.68;3.50;;;;;;;24.55;32.66;100528.38;6137930;23;20101;-78
2023/07/16 12:55:53;;;;;;;9.27;3.42;;;;;;;24.55;31.94;100539.06;6155732;23;20080;-82
2023/07/16 12:59:00;;;;;;;7.95;3.60;;;;;;;24.71;31.62;100531.00;6155804;23;20098;-78
2023/07/16 13:02:05;;;;;;;7.35;3.38;;;;;;;24.94;31.79;100522.22;6155468;23;20052;-75
2023/07/16 13:05:09;;;;;;;7.03;3.30;;;;;;;25.07;31.65;100535.88;6155621;23;20076;-76
2023/07/16 13:08:12;;;;;;;6.57;3.42;;;;;;;25.16;30.73;100542.88;6155643;23;20028;-75
2023/07/16 13:11:16;;;;;;;7.03;3.25;;;;;;;25.23;30.82;100532.31;6155625;23;20024;-76
2023/07/16 13:14:19;;;;;;;7.90;3.63;;;;;;;25.16;31.03;100534.88;6155538;23;20083;-77
2023/07/16 13:17:23;;;;;;;8.13;3.95;;;;;;;25.19;31.26;100521.13;6155613;23;20377;-77
2023/07/16 13:20:30;;;;;;;5.15;3.42;;;;;;;25.63;30.51;100520.53;6155400;23;20363;-77
2023/07/16 13:23:33;;;;;;;6.40;3.10;;;;;;;25.92;30.42;100527.03;6137374;23;20363;-75
2023/07/16 13:26:36;;;;;;;7.47;3.40;;;;;;;26.08;30.54;100526.91;6155449;23;20036;-76
2023/07/16 13:29:40;;;;;;;8.10;3.65;;;;;;;26.44;29.38;100542.28;6155322;23;20072;-74
2023/07/16 13:32:45;;;;;;;5.78;3.40;;;;;;;26.48;28.85;100522.16;6155305;23;20459;-80
2023/07/16 13:35:48;;;;;;;5.63;3.30;;;;;;;26.67;28.94;100543.09;6155398;23;20028;-77
2023/07/16 13:38:51;;;;;;;5.95;3.83;;;;;;;26.52;28.79;100533.38;6155297;23;20412;-73
2023/07/16 13:41:58;;;;;;;10.05;5.07;;;;;;;26.58;29.01;100525.44;6155058;23;20031;-79
2023/07/16 13:45:03;;;;;;;9.32;3.83;;;;;;;26.97;28.01;100520.78;6155104;23;20028;-81
2023/07/16 13:48:07;;;;;;;6.53;3.38;;;;;;;27.40;27.47;100537.00;6155378;23;20111;-77
2023/07/16 13:51:13;;;;;;;7.53;3.90;;;;;;;27.21;28.12;100533.06;6155359;23;20470;-79
2023/07/16 13:54:19;;;;;;;9.50;3.83;;;;;;;27.21;28.04;100530.38;6155435;23;20475;-79
2023/07/16 13:57:32;;;;;;;6.93;3.60;;;;;;;27.13;28.31;100536.66;6155417;23;20028;-79
2023/07/16 14:00:41;;;;;;;7.05;3.35;;;;;;;27.30;27.63;100548.03;6155219;23;20072;-78
2023/07/16 14:03:45;;;;;;;5.32;3.60;;;;;;;26.95;27.92;100547.78;6137213;23;20097;-80
2023/07/16 14:06:53;;;;;;;5.78;3.00;;;;;;;26.80;28.00;100537.09;6155148;23;20024;-78
2023/07/16 14:10:02;;;;;;;9.50;3.60;;;;;;;26.56;28.27;100540.03;6136809;23;20025;-78
2023/07/16 14:13:06;;;;;;;6.18;3.45;;;;;;;26.30;28.84;100552.00;6154742;23;20068;-78
2023/07/16 14:16:20;;;;;;;8.55;3.60;;;;;;;26.36;28.89;100543.22;6154872;23;20068;-78
2023/07/16 14:19:27;;;;;;;9.75;3.35;;;;;;;25.87;29.57;100538.28;6155038;23;20036;-74
2023/07/16 14:22:30;;;;;;;7.00;3.80;;;;;;;25.68;30.18;100560.16;6154980;23;20093;-77
2023/07/16 14:25:34;;;;;;;7.90;3.72;;;;;;;25.40;30.53;100562.50;6155001;23;20407;-77